createdAt,value
2019-05-10T00:01:44.603Z,4.67
2019-05-10T00:04:30.930Z,4.50
2019-05-10T00:07:16.710Z,4.87
2019-05-10T00:09:44.736Z,4.57
2019-05-10T00:12:14.808Z,4.80
2019-05-10T00:14:47.841Z,4.80
2019-05-10T00:17:17.358Z,4.03
2019-05-10T00:19:45.795Z,3.93
2019-05-10T00:22:14.237Z,4.07
2019-05-10T00:24:42.665Z,4.47
2019-05-10T00:27:11.116Z,4.60
2019-05-10T00:29:39.790Z,4.30
2019-05-10T00:32:08.566Z,4.40
2019-05-10T00:34:37.017Z,4.53
2019-05-10T00:37:05.697Z,4.27
2019-05-10T00:39:34.197Z,4.13
2019-05-10T00:42:02.713Z,4.40
2019-05-10T00:44:31.145Z,4.90
2019-05-10T00:46:59.590Z,4.97
2019-05-10T00:49:28.039Z,5.20
2019-05-10T00:51:56.529Z,4.60
2019-05-10T00:54:24.990Z,4.87
2019-05-10T00:56:53.445Z,5.00
2019-05-10T00:59:21.928Z,4.67
2019-05-10T01:01:50.353Z,5.00
2019-05-10T01:04:18.828Z,6.00
2019-05-10T01:06:47.328Z,5.43
2019-05-10T01:09:15.751Z,4.93
2019-05-10T01:11:44.202Z,4.90
2019-05-10T01:14:12.662Z,5.80
2019-05-10T01:16:41.103Z,5.07
2019-05-10T01:19:09.906Z,5.47
2019-05-10T01:21:38.575Z,5.03
2019-05-10T01:24:06.993Z,5.90
2019-05-10T01:26:35.441Z,5.47
2019-05-10T01:29:03.890Z,5.40
2019-05-10T01:31:32.322Z,5.37
2019-05-10T01:34:00.756Z,5.50
2019-05-10T01:36:29.206Z,5.13
2019-05-10T01:38:57.651Z,5.40
2019-05-10T01:41:26.076Z,5.37
2019-05-10T01:43:54.522Z,5.03
2019-05-10T01:46:23.200Z,5.23
2019-05-10T01:48:51.748Z,5.47
2019-05-10T01:51:20.217Z,5.60
2019-05-10T01:53:48.649Z,5.57
2019-05-10T01:56:17.170Z,5.00
2019-05-10T01:58:45.596Z,5.40
2019-05-10T02:01:14.041Z,5.03
2019-05-10T02:03:42.745Z,5.77
2019-05-10T02:06:11.165Z,5.53
2019-05-10T02:08:39.615Z,5.10
2019-05-10T02:11:08.294Z,5.07
2019-05-10T02:13:36.717Z,4.80
2019-05-10T02:16:05.229Z,5.47
2019-05-10T02:18:33.662Z,6.00
2019-05-10T02:21:02.117Z,5.40
2019-05-10T02:23:30.809Z,5.83
2019-05-10T02:26:08.871Z,5.77
2019-05-10T02:28:29.397Z,5.70
2019-05-10T02:30:57.912Z,5.33
2019-05-10T02:33:26.384Z,5.53
2019-05-10T02:35:54.879Z,5.50
2019-05-10T02:38:23.320Z,6.00
2019-05-10T02:40:52.018Z,5.50
2019-05-10T02:43:20.616Z,6.70
2019-05-10T02:45:49.079Z,5.73
2019-05-10T02:48:17.841Z,6.30
2019-05-10T02:50:46.850Z,6.40
2019-05-10T02:53:15.481Z,6.60
2019-05-10T02:55:43.939Z,7.43
2019-05-10T02:58:15.101Z,7.30
2019-05-10T03:00:45.577Z,7.10
2019-05-10T03:03:15.871Z,6.57
2019-05-10T03:05:48.487Z,8.33
2019-05-10T03:08:15.411Z,7.57
2019-05-10T03:10:49.419Z,8.03
2019-05-10T03:13:19.542Z,7.80
2019-05-10T03:15:51.123Z,8.17
2019-05-10T03:18:22.874Z,9.30
2019-05-10T03:20:54.638Z,10.00
2019-05-10T03:23:23.328Z,10.10
2019-05-10T03:25:52.037Z,11.27
2019-05-10T03:28:20.587Z,11.20
2019-05-10T03:30:49.091Z,11.07
2019-05-10T03:33:17.527Z,10.47
2019-05-10T03:35:46.363Z,10.40
2019-05-10T03:38:14.997Z,11.57
2019-05-10T03:40:43.450Z,11.57
2019-05-10T03:43:11.883Z,10.57
2019-05-10T03:45:40.338Z,11.23
2019-05-10T03:48:08.766Z,10.67
2019-05-10T03:50:37.223Z,12.20
2019-05-10T03:53:05.663Z,12.50
2019-05-10T03:55:34.115Z,11.50
2019-05-10T03:58:02.638Z,11.40
2019-05-10T04:00:31.156Z,11.90
2019-05-10T04:02:59.867Z,12.30
2019-05-10T04:05:28.285Z,13.67
2019-05-10T04:07:56.732Z,12.50
2019-05-10T04:10:25.426Z,13.87
2019-05-10T04:12:54.310Z,13.53
2019-05-10T04:15:22.742Z,13.10
2019-05-10T04:17:51.184Z,14.23
2019-05-10T04:20:19.886Z,13.43
2019-05-10T04:22:48.336Z,12.63
2019-05-10T04:25:16.961Z,14.17
2019-05-10T04:27:45.441Z,13.73
2019-05-10T04:30:14.444Z,13.83
2019-05-10T04:32:42.869Z,12.60
2019-05-10T04:35:11.326Z,13.87
2019-05-10T04:37:40.039Z,14.50
2019-05-10T04:40:09.688Z,14.13
2019-05-10T04:42:38.206Z,13.40
2019-05-10T04:45:08.097Z,13.77
2019-05-10T04:47:36.554Z,14.03
2019-05-10T04:50:05.419Z,14.83
2019-05-10T04:52:33.870Z,14.97
2019-05-10T04:55:02.314Z,14.03
2019-05-10T04:57:47.998Z,14.90
2019-05-10T05:00:01.007Z,13.80
2019-05-10T05:02:29.457Z,14.63
2019-05-10T05:04:57.986Z,14.73
2019-05-10T05:07:26.521Z,16.03
2019-05-10T05:09:54.991Z,14.77
2019-05-10T05:12:23.434Z,14.57
2019-05-10T05:14:51.874Z,15.10
2019-05-10T05:17:20.318Z,15.20
2019-05-10T05:19:48.769Z,15.20
2019-05-10T05:22:17.959Z,14.90
2019-05-10T05:24:46.424Z,16.80
2019-05-10T05:27:14.860Z,16.10
2019-05-10T05:29:43.326Z,15.20
2019-05-10T05:32:13.467Z,14.77
2019-05-10T05:34:42.011Z,15.47
2019-05-10T05:37:10.707Z,15.67
2019-05-10T05:39:39.234Z,14.37
2019-05-10T05:42:07.935Z,15.53
2019-05-10T05:44:36.395Z,14.83
2019-05-10T05:47:05.067Z,15.33
2019-05-10T05:49:33.693Z,14.83
2019-05-10T05:52:02.125Z,15.87
2019-05-10T05:54:30.565Z,15.63
2019-05-10T05:56:59.022Z,14.73
2019-05-10T05:59:27.719Z,14.37
2019-05-10T06:02:00.625Z,14.87
2019-05-10T06:04:26.594Z,14.53
2019-05-10T06:06:59.021Z,15.23
2019-05-10T06:09:25.559Z,16.03
2019-05-10T06:11:54.005Z,16.33
2019-05-10T06:14:22.439Z,16.80
2019-05-10T06:16:52.951Z,16.93
2019-05-10T06:19:29.224Z,16.30
2019-05-10T06:21:51.227Z,15.97
2019-05-10T06:24:19.656Z,17.10
2019-05-10T06:26:48.125Z,17.13
2019-05-10T06:29:17.879Z,17.50
2019-05-10T06:31:46.707Z,16.93
2019-05-10T06:34:15.152Z,16.93
2019-05-10T06:36:43.591Z,20.03
2019-05-10T06:39:12.105Z,21.00
2019-05-10T06:41:40.562Z,20.77
2019-05-10T06:44:09.009Z,21.07
2019-05-10T06:46:37.440Z,22.43
2019-05-10T06:49:08.329Z,22.87
2019-05-10T06:51:36.141Z,23.03
2019-05-10T06:54:04.656Z,21.77
2019-05-10T06:56:33.091Z,22.27
2019-05-10T06:59:13.140Z,21.57
2019-05-10T07:01:31.705Z,22.47
2019-05-10T07:04:00.161Z,20.87
2019-05-10T07:06:28.602Z,19.37
2019-05-10T07:08:58.002Z,19.47
2019-05-10T07:11:27.463Z,18.40
2019-05-10T07:13:55.896Z,17.87
2019-05-10T07:16:26.043Z,14.00
2019-05-10T07:18:59.886Z,14.43
2019-05-10T07:21:24.669Z,13.60
2019-05-10T07:23:53.179Z,8.03
2019-05-10T07:26:24.725Z,9.77
2019-05-10T07:28:57.299Z,9.63
2019-05-10T07:31:23.665Z,9.07
2019-05-10T07:33:52.431Z,8.60
2019-05-10T07:36:27.016Z,9.13
2019-05-10T07:38:51.282Z,6.70
2019-05-10T07:41:26.531Z,8.10
2019-05-10T07:43:50.148Z,8.13
2019-05-10T07:46:18.593Z,5.47
2019-05-10T07:48:50.669Z,2.93
2019-05-10T07:51:17.244Z,6.13
2019-05-10T07:53:45.663Z,5.53
2019-05-10T07:56:14.109Z,6.60
2019-05-10T07:58:43.207Z,6.37
2019-05-10T08:01:12.712Z,6.83
2019-05-10T08:03:48.277Z,7.77
2019-05-10T08:06:11.298Z,7.67
2019-05-10T08:08:39.750Z,6.87
2019-05-10T08:11:08.618Z,7.00
2019-05-10T08:13:39.367Z,7.80
2019-05-10T08:16:11.921Z,7.60
2019-05-10T08:18:41.976Z,7.60
2019-05-10T08:21:20.873Z,7.40
2019-05-10T08:23:38.171Z,7.50
2019-05-10T08:26:10.957Z,7.90
2019-05-10T08:28:39.807Z,8.17
2019-05-10T08:31:06.925Z,9.00
2019-05-10T08:33:35.388Z,9.40
2019-05-10T08:36:05.487Z,9.83
2019-05-10T08:38:34.111Z,9.97
2019-05-10T08:41:02.784Z,9.93
2019-05-10T08:43:39.016Z,9.87
2019-05-10T08:46:02.882Z,8.93
2019-05-10T08:48:33.098Z,8.57
2019-05-10T08:51:04.048Z,9.23
2019-05-10T08:53:32.903Z,9.47
2019-05-10T08:56:02.090Z,9.03
2019-05-10T08:58:36.937Z,8.57
2019-05-10T09:01:16.384Z,8.63
2019-05-10T09:03:32.334Z,10.93
2019-05-10T09:06:05.298Z,10.40
2019-05-10T09:08:32.512Z,9.63
2019-05-10T09:11:06.089Z,9.63
2019-05-10T09:13:37.082Z,9.83
2019-05-10T09:16:02.449Z,10.00
2019-05-10T09:18:32.969Z,9.73
2019-05-10T09:21:08.599Z,9.57
2019-05-10T09:23:32.663Z,9.67
2019-05-10T09:26:09.531Z,9.07
2019-05-10T09:28:32.228Z,9.20
2019-05-10T09:31:16.521Z,4.03
2019-05-10T09:33:31.980Z,8.73
2019-05-10T09:36:02.777Z,7.20
2019-05-10T09:38:37.142Z,4.90
2019-05-10T09:41:02.421Z,5.97
2019-05-10T09:43:31.915Z,5.53
2019-05-10T09:46:02.711Z,5.13
2019-05-10T09:48:33.109Z,5.10
2019-05-10T09:51:03.896Z,5.00
2019-05-10T09:53:31.283Z,5.03
2019-05-10T09:56:03.145Z,5.40
2019-05-10T09:58:30.971Z,4.70
2019-05-10T10:01:13.763Z,4.63
2019-05-10T10:03:35.103Z,3.50
2019-05-10T10:06:05.197Z,3.00
2019-05-10T10:08:30.153Z,4.27
2019-05-10T10:11:10.340Z,2.80
2019-05-10T10:13:39.332Z,2.67
2019-05-10T10:16:04.021Z,2.10
2019-05-10T10:18:29.158Z,2.70
2019-05-10T10:20:57.596Z,2.07
2019-05-10T10:23:30.757Z,2.13
2019-05-10T10:25:57.957Z,2.77
2019-05-10T10:28:28.618Z,2.73
2019-05-10T10:31:03.034Z,2.57
2019-05-10T10:33:29.061Z,2.77
2019-05-10T10:36:04.728Z,2.97
2019-05-10T10:38:31.048Z,2.70
2019-05-10T10:40:57.901Z,2.40
2019-05-10T10:43:27.244Z,3.20
2019-05-10T10:45:57.451Z,3.13
2019-05-10T10:48:28.297Z,3.20
2019-05-10T10:50:58.608Z,3.80
2019-05-10T10:53:28.266Z,3.30
2019-05-10T10:56:03.589Z,2.47
2019-05-10T10:58:27.631Z,2.20
2019-05-10T11:00:56.141Z,1.67
2019-05-10T11:03:30.191Z,1.80
2019-05-10T11:05:54.764Z,2.17
2019-05-10T11:08:23.215Z,1.90
2019-05-10T11:10:51.669Z,2.20
2019-05-10T11:13:39.742Z,2.53
2019-05-10T11:15:51.620Z,2.00
2019-05-10T11:18:21.687Z,2.30
2019-05-10T11:20:53.892Z,1.83
2019-05-10T11:23:26.827Z,2.07
2019-05-10T11:25:56.291Z,2.60
2019-05-10T11:28:20.782Z,2.50
2019-05-10T11:30:51.176Z,2.20
2019-05-10T11:33:29.120Z,1.87
2019-05-10T11:35:51.369Z,4.10
2019-05-10T11:38:21.474Z,2.90
2019-05-10T11:40:50.097Z,4.40
2019-05-10T11:43:23.700Z,2.00
2019-05-10T11:45:48.685Z,1.60
2019-05-10T11:48:17.119Z,1.67
2019-05-10T11:50:45.565Z,2.10
2019-05-10T11:53:17.343Z,1.70
2019-05-10T11:55:44.224Z,1.23
2019-05-10T11:58:13.399Z,2.60
2019-05-10T12:00:42.189Z,5.33
2019-05-10T12:03:15.448Z,6.10
2019-05-10T12:05:42.571Z,2.27
2019-05-10T12:08:12.975Z,1.90
2019-05-10T12:10:48.898Z,3.97
2019-05-10T12:13:19.376Z,2.10
2019-05-10T12:15:42.981Z,2.00
2019-05-10T12:18:14.868Z,2.03
2019-05-10T12:20:54.849Z,2.10
2019-05-10T12:23:21.946Z,1.97
2019-05-10T12:26:35.812Z,2.00
2019-05-10T12:28:15.344Z,2.07
2019-05-10T12:30:43.144Z,2.20
2019-05-10T12:33:24.096Z,1.87
2019-05-10T12:35:47.156Z,1.90
2019-05-10T12:38:11.900Z,2.50
2019-05-10T12:40:41.769Z,2.20
2019-05-10T12:43:11.044Z,2.30
2019-05-10T12:45:41.681Z,2.57
2019-05-10T12:48:09.919Z,2.80
2019-05-10T12:50:38.334Z,2.40
2019-05-10T12:53:14.419Z,3.87
2019-05-10T12:55:37.253Z,3.10
2019-05-10T12:58:06.007Z,3.17
2019-05-10T13:00:36.224Z,2.40
2019-05-10T13:03:12.649Z,1.90
2019-05-10T13:05:51.108Z,2.70
2019-05-10T13:08:05.361Z,2.60
2019-05-10T13:10:37.376Z,2.47
2019-05-10T13:13:04.299Z,2.70
2019-05-10T13:15:33.523Z,2.13
2019-05-10T13:18:02.013Z,1.93
2019-05-10T13:20:31.059Z,2.27
2019-05-10T13:23:00.719Z,1.37
2019-05-10T13:25:29.163Z,1.83
2019-05-10T13:27:57.593Z,1.73
2019-05-10T13:30:28.150Z,1.93
2019-05-10T13:32:58.525Z,2.20
2019-05-10T13:35:26.355Z,1.93
2019-05-10T13:37:56.832Z,1.90
2019-05-10T13:40:24.949Z,2.50
2019-05-10T13:42:53.361Z,1.80
2019-05-10T13:45:21.807Z,1.80
2019-05-10T13:47:50.245Z,2.10
2019-05-10T13:50:18.722Z,2.10
2019-05-10T13:52:47.550Z,2.30
2019-05-10T13:55:16.006Z,2.27
2019-05-10T13:57:44.450Z,2.50
2019-05-10T14:00:13.633Z,1.90
2019-05-10T14:02:42.086Z,2.00
2019-05-10T14:05:11.957Z,2.13
2019-05-10T14:07:49.677Z,2.17
2019-05-10T14:10:11.695Z,1.60
2019-05-10T14:12:40.140Z,3.90
2019-05-10T14:15:12.795Z,1.93
2019-05-10T14:17:39.066Z,2.10
2019-05-10T14:20:19.718Z,2.20
2019-05-10T14:22:38.424Z,2.50
2019-05-10T14:25:08.385Z,2.43
2019-05-10T14:27:38.653Z,1.97
2019-05-10T14:30:13.740Z,2.07
2019-05-10T14:32:38.290Z,4.60
2019-05-10T14:35:10.073Z,2.77
2019-05-10T14:37:38.529Z,2.50
2019-05-10T14:40:07.525Z,2.80
2019-05-10T14:42:36.033Z,2.27
2019-05-10T14:45:05.503Z,1.17
2019-05-10T14:47:46.625Z,2.80
2019-05-10T14:50:05.238Z,2.53
2019-05-10T14:52:33.681Z,2.73
2019-05-10T14:55:02.157Z,2.90
2019-05-10T14:57:30.609Z,2.80
2019-05-10T14:59:59.034Z,2.47
2019-05-10T15:02:27.516Z,1.30
2019-05-10T15:04:55.932Z,1.20
2019-05-10T15:07:24.386Z,2.50
2019-05-10T15:09:54.208Z,1.40
2019-05-10T15:12:23.074Z,4.00
2019-05-10T15:14:51.622Z,2.23
2019-05-10T15:17:20.449Z,3.00
2019-05-10T15:19:57.550Z,3.40
2019-05-10T15:22:22.956Z,2.43
2019-05-10T15:24:49.194Z,4.33
2019-05-10T15:27:21.888Z,2.87
2019-05-10T15:29:47.778Z,2.33
2019-05-10T15:32:16.466Z,2.97
2019-05-10T15:35:04.166Z,2.60
2019-05-10T15:37:17.587Z,2.87
2019-05-10T15:39:45.234Z,2.80
2019-05-10T15:42:13.680Z,2.27
2019-05-10T15:44:42.138Z,3.20
2019-05-10T15:47:14.540Z,2.90
2019-05-10T15:49:40.986Z,2.80
2019-05-10T15:54:44.785Z,2.90
2019-05-10T15:57:14.111Z,2.93
2019-05-10T15:59:23.579Z,2.90
2019-05-10T15:59:39.889Z,3.00
2019-05-10T16:02:08.571Z,2.60
2019-05-10T16:04:37.064Z,2.67
2019-05-10T16:07:09.288Z,2.50
2019-05-10T16:09:36.099Z,2.50
2019-05-10T16:12:08.440Z,2.50
2019-05-10T16:14:39.150Z,3.00
2019-05-10T16:17:10.338Z,2.80
2019-05-10T16:19:35.405Z,5.13
2019-05-10T16:22:03.897Z,3.20
2019-05-10T16:24:32.326Z,3.03
2019-05-10T16:27:01.914Z,3.00
2019-05-10T16:29:33.642Z,2.87
2019-05-10T16:32:00.894Z,3.10
2019-05-10T16:34:32.245Z,2.67
2019-05-10T16:36:59.515Z,3.00
2019-05-10T16:39:28.219Z,2.80
2019-05-10T16:41:56.644Z,3.20
2019-05-10T16:44:25.098Z,2.70
2019-05-10T16:46:53.534Z,2.80
2019-05-10T16:49:21.958Z,3.60
2019-05-10T16:51:50.659Z,4.23
2019-05-10T16:54:25.069Z,2.90
2019-05-10T16:56:51.717Z,2.90
2019-05-10T16:59:19.433Z,3.60
2019-05-10T17:01:47.858Z,3.20
2019-05-10T17:04:16.401Z,2.57
2019-05-10T17:06:45.111Z,3.03
2019-05-10T17:09:18.106Z,2.93
2019-05-10T17:11:46.912Z,3.33
2019-05-10T17:14:17.803Z,2.97
2019-05-10T17:16:44.298Z,2.80
2019-05-10T17:19:12.798Z,3.50
2019-05-10T17:21:41.524Z,2.90
2019-05-10T17:24:10.003Z,2.70
2019-05-10T17:26:38.457Z,3.20
2019-05-10T17:29:12.062Z,2.90
2019-05-10T17:31:39.700Z,3.10
2019-05-10T17:34:07.463Z,3.40
2019-05-10T17:36:35.879Z,2.27
2019-05-10T17:39:06.129Z,2.93
2019-05-10T17:41:34.571Z,2.77
2019-05-10T17:44:03.087Z,3.40
2019-05-10T17:46:31.527Z,2.33
2019-05-10T17:48:59.955Z,3.07
2019-05-10T17:51:28.469Z,2.30
2019-05-10T17:54:01.465Z,3.07
2019-05-10T17:56:27.567Z,2.97
2019-05-10T17:58:55.982Z,2.70
2019-05-10T18:01:24.442Z,2.47
2019-05-10T18:03:52.929Z,3.20
2019-05-10T18:06:24.083Z,3.47
2019-05-10T18:08:51.542Z,2.77
2019-05-10T18:11:19.961Z,2.00
2019-05-10T18:13:48.417Z,3.57
2019-05-10T18:16:16.833Z,2.40
2019-05-10T18:18:47.043Z,2.73
2019-05-10T18:21:20.959Z,2.50
2019-05-10T18:23:46.077Z,3.20
2019-05-10T18:26:14.501Z,2.90
2019-05-10T18:28:42.954Z,3.13
2019-05-10T18:31:11.386Z,3.07
2019-05-10T18:33:44.823Z,2.33
2019-05-10T18:36:11.119Z,2.93
2019-05-10T18:38:39.670Z,2.57
2019-05-10T18:41:09.991Z,3.10
2019-05-10T18:43:40.646Z,2.80
2019-05-10T18:46:08.498Z,3.67
2019-05-10T18:48:37.211Z,3.90
2019-05-10T18:51:05.649Z,3.40
2019-05-10T18:53:34.359Z,3.40
2019-05-10T18:56:02.811Z,2.80
2019-05-10T18:58:31.701Z,3.10
2019-05-10T19:01:01.041Z,2.70
2019-05-10T19:03:33.745Z,3.03
2019-05-10T19:06:03.943Z,2.90
2019-05-10T19:08:30.692Z,3.17
2019-05-10T19:10:59.144Z,8.50
2019-05-10T19:13:30.752Z,3.43
2019-05-10T19:15:58.587Z,2.87
2019-05-10T19:18:27.323Z,3.00
2019-05-10T19:20:55.844Z,3.10
2019-05-10T19:23:24.355Z,3.40
2019-05-10T19:25:53.893Z,3.17
2019-05-10T19:28:26.699Z,2.83
2019-05-10T19:30:58.236Z,2.50
2019-05-10T19:33:22.852Z,3.23
2019-05-10T19:35:51.299Z,3.00
2019-05-10T19:38:19.721Z,3.13
2019-05-10T19:40:48.406Z,3.63
2019-05-10T19:43:21.879Z,3.53
2019-05-10T19:45:51.062Z,3.20
2019-05-10T19:48:17.461Z,3.43
2019-05-10T19:50:45.914Z,3.13
2019-05-10T19:53:14.342Z,3.90
2019-05-10T19:55:42.761Z,3.30
2019-05-10T19:58:11.202Z,3.30
2019-05-10T20:00:39.649Z,3.27
2019-05-10T20:03:08.092Z,3.13
2019-05-10T20:05:36.585Z,3.40
2019-05-10T20:08:05.084Z,3.73
2019-05-10T20:10:33.533Z,3.37
2019-05-10T20:13:01.970Z,3.60
2019-05-10T20:15:30.396Z,3.80
2019-05-10T20:17:59.119Z,4.40
2019-05-10T20:20:27.923Z,3.97
2019-05-10T20:22:56.380Z,4.10
2019-05-10T20:25:24.892Z,4.07
2019-05-10T20:27:53.313Z,3.77
2019-05-10T20:30:21.905Z,3.67
2019-05-10T20:32:50.324Z,4.23
2019-05-10T20:35:18.774Z,3.73
2019-05-10T20:38:00.650Z,3.70
2019-05-10T20:40:17.444Z,4.53
2019-05-10T20:42:45.892Z,4.63
2019-05-10T20:45:14.410Z,4.53
2019-05-10T20:47:42.842Z,4.97
2019-05-10T20:50:11.726Z,5.10
2019-05-10T20:52:40.153Z,4.57
2019-05-10T20:55:09.345Z,4.67
2019-05-10T20:57:38.038Z,4.40
2019-05-10T21:00:07.011Z,4.80
2019-05-10T21:02:35.436Z,4.80
2019-05-10T21:05:05.730Z,4.07
2019-05-10T21:07:34.145Z,4.37
2019-05-10T21:10:02.696Z,4.37
2019-05-10T21:12:31.139Z,4.30
2019-05-10T21:14:59.566Z,4.60
2019-05-10T21:17:28.089Z,4.90
2019-05-10T21:19:56.532Z,4.30
2019-05-10T21:22:24.981Z,4.80
2019-05-10T21:24:53.434Z,4.30
2019-05-10T21:27:22.110Z,4.83
2019-05-10T21:29:50.533Z,5.00
2019-05-10T21:32:19.257Z,5.33
2019-05-10T21:34:47.680Z,4.63
2019-05-10T21:37:16.128Z,4.87
2019-05-10T21:39:44.611Z,4.63
2019-05-10T21:42:13.399Z,4.83
2019-05-10T21:44:41.891Z,4.63
2019-05-10T21:47:10.345Z,4.70
2019-05-10T21:49:39.023Z,4.77
2019-05-10T21:52:07.470Z,5.40
2019-05-10T21:54:35.893Z,4.20
2019-05-10T21:57:04.345Z,3.93
2019-05-10T21:59:32.794Z,4.60
2019-05-10T22:02:01.226Z,4.57
2019-05-10T22:04:29.672Z,4.97
2019-05-10T22:06:58.099Z,5.33
2019-05-10T22:09:26.977Z,5.53
2019-05-10T22:11:55.431Z,4.97
2019-05-10T22:14:23.880Z,4.60
2019-05-10T22:16:52.385Z,4.60
2019-05-10T22:19:20.819Z,4.63
2019-05-10T22:21:49.260Z,4.40
2019-05-10T22:24:17.676Z,4.40
2019-05-10T22:26:46.134Z,4.97
2019-05-10T22:29:14.558Z,5.20
2019-05-10T22:31:43.016Z,5.03
2019-05-10T22:34:11.476Z,5.20
2019-05-10T22:36:39.924Z,5.77
2019-05-10T22:39:08.356Z,5.20
2019-05-10T22:41:36.803Z,5.30
2019-05-10T22:44:05.267Z,5.43
2019-05-10T22:46:33.696Z,5.00
2019-05-10T22:49:02.144Z,5.07
2019-05-10T22:51:30.830Z,5.13
2019-05-10T22:54:00.416Z,5.70
2019-05-10T22:56:28.941Z,5.43
2019-05-10T22:58:57.382Z,4.70
2019-05-10T23:01:25.815Z,5.17
2019-05-10T23:03:54.528Z,5.43
2019-05-10T23:06:23.206Z,4.90
2019-05-10T23:08:51.629Z,4.50
2019-05-10T23:11:20.078Z,4.67
2019-05-10T23:13:48.505Z,5.70
2019-05-10T23:16:16.953Z,5.20
2019-05-10T23:18:45.390Z,5.20
2019-05-10T23:21:13.855Z,6.23
2019-05-10T23:23:42.638Z,5.97
2019-05-10T23:26:11.081Z,5.60
2019-05-10T23:28:39.573Z,5.30
2019-05-10T23:31:08.030Z,5.20
2019-05-10T23:33:36.482Z,5.57
2019-05-10T23:36:04.913Z,5.37
2019-05-10T23:38:33.375Z,5.43
2019-05-10T23:41:01.803Z,5.30
2019-05-10T23:43:30.254Z,5.63
2019-05-10T23:45:58.680Z,5.20
2019-05-10T23:48:27.125Z,5.47
2019-05-10T23:50:55.573Z,5.80
2019-05-10T23:53:24.091Z,5.57
2019-05-10T23:55:52.538Z,5.30
2019-05-10T23:58:20.996Z,5.93
